createdAt,value
2019-02-07T00:00:03.761Z,69.65
2019-02-07T00:01:03.627Z,69.74
2019-02-07T00:02:03.504Z,70.21
2019-02-07T00:03:03.360Z,69.37
2019-02-07T00:04:03.224Z,69.84
2019-02-07T00:05:03.091Z,70.69
2019-02-07T00:06:02.957Z,71.35
2019-02-07T00:07:02.831Z,72.30
2019-02-07T00:08:02.684Z,72.39
2019-02-07T00:09:02.552Z,71.73
2019-02-07T00:10:02.416Z,71.83
2019-02-07T00:11:02.288Z,72.39
2019-02-07T00:12:02.154Z,72.30
2019-02-07T00:13:02.014Z,71.16
2019-02-07T00:14:01.879Z,70.88
2019-02-07T00:15:01.749Z,71.45
2019-02-07T00:16:01.611Z,70.97
2019-02-07T00:17:01.476Z,70.03
2019-02-07T00:18:01.343Z,69.74
2019-02-07T00:19:01.208Z,69.56
2019-02-07T00:20:01.072Z,69.74
2019-02-07T00:21:00.940Z,70.03
2019-02-07T00:22:00.805Z,70.21
2019-02-07T00:23:00.677Z,70.40
2019-02-07T00:24:00.536Z,69.93
2019-02-07T00:25:00.402Z,69.74
2019-02-07T00:26:00.267Z,69.84
2019-02-07T00:27:00.140Z,69.46
2019-02-07T00:28:00.010Z,68.99
2019-02-07T00:28:59.863Z,68.71
2019-02-07T00:29:59.728Z,69.27
2019-02-07T00:30:59.595Z,69.93
2019-02-07T00:31:59.458Z,69.84
2019-02-07T00:32:59.325Z,69.65
2019-02-07T00:33:59.191Z,70.69
2019-02-07T00:34:59.149Z,71.16
2019-02-07T00:35:58.920Z,70.50
2019-02-07T00:36:58.785Z,70.59
2019-02-07T00:37:58.652Z,70.21
2019-02-07T00:38:58.518Z,71.07
2019-02-07T00:39:58.390Z,71.07
2019-02-07T00:40:58.250Z,71.16
2019-02-07T00:41:58.116Z,70.21
2019-02-07T00:42:57.982Z,70.69
2019-02-07T00:43:57.845Z,71.45
2019-02-07T00:44:57.710Z,71.92
2019-02-07T00:45:57.576Z,72.20
2019-02-07T00:46:57.442Z,71.35
2019-02-07T00:47:57.306Z,71.83
2019-02-07T00:48:57.173Z,71.16
2019-02-07T00:49:57.042Z,71.07
2019-02-07T00:50:56.907Z,70.97
2019-02-07T00:51:56.771Z,71.54
2019-02-07T00:52:56.634Z,71.83
2019-02-07T00:53:56.501Z,72.77
2019-02-07T00:54:56.367Z,72.30
2019-02-07T00:55:56.232Z,71.83
2019-02-07T00:56:56.098Z,71.16
2019-02-07T00:57:55.962Z,69.84
2019-02-07T00:58:55.829Z,70.03
2019-02-07T00:59:55.692Z,70.12
2019-02-07T01:00:55.557Z,70.12
2019-02-07T01:01:55.424Z,70.03
2019-02-07T01:02:55.290Z,70.40
2019-02-07T01:03:55.153Z,70.69
2019-02-07T01:04:55.020Z,70.40
2019-02-07T01:05:54.885Z,70.03
2019-02-07T01:06:54.753Z,69.93
2019-02-07T01:07:54.616Z,70.59
2019-02-07T01:08:54.522Z,70.59
2019-02-07T01:09:54.346Z,71.07
2019-02-07T01:10:54.215Z,70.21
2019-02-07T01:11:54.081Z,69.27
2019-02-07T01:12:53.944Z,69.37
2019-02-07T01:13:53.807Z,70.21
2019-02-07T01:15:01.620Z,71.45
2019-02-07T01:15:53.540Z,70.97
2019-02-07T01:16:53.406Z,71.26
2019-02-07T01:17:53.269Z,71.73
2019-02-07T01:18:53.140Z,71.64
2019-02-07T01:19:53.001Z,71.35
2019-02-07T01:20:52.867Z,72.30
2019-02-07T01:21:52.732Z,72.30
2019-02-07T01:22:52.599Z,71.45
2019-02-07T01:23:52.462Z,70.97
2019-02-07T01:24:52.329Z,70.88
2019-02-07T01:25:52.195Z,71.07
2019-02-07T01:26:52.059Z,70.59
2019-02-07T01:27:51.922Z,70.50
2019-02-07T01:28:51.789Z,70.31
2019-02-07T01:29:51.654Z,69.74
2019-02-07T01:30:51.520Z,69.27
2019-02-07T01:31:51.386Z,69.37
2019-02-07T01:32:51.256Z,68.99
2019-02-07T01:33:51.115Z,69.46
2019-02-07T01:34:50.989Z,69.65
2019-02-07T01:35:50.848Z,69.93
2019-02-07T01:36:50.712Z,69.18
2019-02-07T01:37:50.579Z,68.61
2019-02-07T01:38:50.442Z,69.37
2019-02-07T01:39:50.307Z,69.56
2019-02-07T01:40:50.175Z,69.65
2019-02-07T01:41:50.042Z,69.27
2019-02-07T01:42:49.906Z,69.18
2019-02-07T01:43:49.768Z,69.46
2019-02-07T01:44:49.633Z,69.37
2019-02-07T01:45:49.502Z,69.56
2019-02-07T01:46:49.366Z,69.46
2019-02-07T01:47:49.233Z,69.65
2019-02-07T01:48:49.096Z,69.56
2019-02-07T01:49:48.960Z,69.93
2019-02-07T01:50:48.826Z,69.46
2019-02-07T01:51:48.690Z,68.90
2019-02-07T01:52:48.555Z,68.61
2019-02-07T01:53:48.422Z,67.95
2019-02-07T01:54:48.287Z,67.95
2019-02-07T01:55:48.153Z,67.57
2019-02-07T01:56:48.019Z,68.23
2019-02-07T01:57:47.886Z,67.85
2019-02-07T01:58:47.750Z,68.14
2019-02-07T01:59:47.613Z,68.14
2019-02-07T02:00:47.478Z,67.76
2019-02-07T02:01:47.345Z,67.76
2019-02-07T02:02:47.214Z,67.76
2019-02-07T02:03:47.076Z,67.76
2019-02-07T02:04:46.940Z,68.23
2019-02-07T02:05:46.808Z,68.04
2019-02-07T02:06:46.675Z,68.04
2019-02-07T02:07:46.537Z,67.57
2019-02-07T02:08:46.406Z,68.52
2019-02-07T02:09:46.267Z,69.37
2019-02-07T02:10:46.134Z,69.27
2019-02-07T02:11:45.999Z,68.61
2019-02-07T02:12:45.862Z,68.33
2019-02-07T02:13:45.730Z,67.76
2019-02-07T02:14:45.596Z,67.95
2019-02-07T02:15:45.458Z,67.85
2019-02-07T02:16:45.325Z,68.04
2019-02-07T02:17:45.191Z,68.14
2019-02-07T02:18:45.055Z,68.04
2019-02-07T02:19:44.921Z,68.52
2019-02-07T02:20:44.789Z,68.52
2019-02-07T02:21:44.652Z,68.80
2019-02-07T02:22:44.517Z,69.27
2019-02-07T02:23:44.381Z,68.80
2019-02-07T02:24:45.294Z,68.52
2019-02-07T02:25:44.112Z,69.18
2019-02-07T02:26:43.977Z,68.23
2019-02-07T02:27:43.843Z,68.23
2019-02-07T02:28:43.710Z,68.14
2019-02-07T02:29:43.575Z,68.61
2019-02-07T02:30:43.439Z,69.18
2019-02-07T02:31:43.304Z,69.37
2019-02-07T02:32:43.168Z,68.90
2019-02-07T02:33:43.037Z,68.61
2019-02-07T02:34:42.915Z,68.42
2019-02-07T02:35:42.767Z,68.99
2019-02-07T02:36:42.631Z,68.99
2019-02-07T02:37:42.497Z,68.90
2019-02-07T02:38:42.361Z,68.42
2019-02-07T02:39:42.229Z,68.04
2019-02-07T02:40:42.093Z,68.04
2019-02-07T02:41:41.958Z,68.42
2019-02-07T02:42:41.824Z,69.46
2019-02-07T02:43:41.687Z,69.84
2019-02-07T02:44:41.555Z,69.65
2019-02-07T02:45:41.419Z,68.99
2019-02-07T02:46:41.287Z,68.90
2019-02-07T02:47:41.148Z,69.65
2019-02-07T02:48:41.014Z,69.18
2019-02-07T02:49:40.879Z,69.93
2019-02-07T02:50:40.751Z,69.74
2019-02-07T02:51:40.617Z,69.27
2019-02-07T02:52:40.535Z,69.09
2019-02-07T02:53:40.345Z,68.14
2019-02-07T02:54:40.207Z,68.61
2019-02-07T02:55:40.077Z,68.71
2019-02-07T02:56:39.938Z,68.71
2019-02-07T02:57:39.800Z,69.09
2019-02-07T02:58:39.668Z,69.09
2019-02-07T02:59:39.531Z,68.33
2019-02-07T03:00:39.395Z,68.04
2019-02-07T03:01:39.262Z,68.52
2019-02-07T03:02:39.127Z,68.23
2019-02-07T03:03:38.992Z,68.33
2019-02-07T03:04:38.933Z,67.66
2019-02-07T03:05:38.721Z,66.91
2019-02-07T03:06:38.586Z,67.19
2019-02-07T03:07:38.453Z,67.29
2019-02-07T03:08:38.325Z,67.00
2019-02-07T03:09:38.182Z,68.04
2019-02-07T03:10:38.055Z,68.14
2019-02-07T03:11:37.917Z,68.42
2019-02-07T03:12:37.781Z,68.52
2019-02-07T03:13:37.645Z,68.71
2019-02-07T03:14:37.511Z,68.14
2019-02-07T03:15:48.795Z,67.95
2019-02-07T03:16:37.245Z,67.95
2019-02-07T03:17:37.106Z,68.04
2019-02-07T03:18:36.972Z,67.85
2019-02-07T03:19:36.854Z,67.38
2019-02-07T03:20:36.702Z,67.00
2019-02-07T03:21:36.572Z,66.72
2019-02-07T03:22:36.433Z,66.72
2019-02-07T03:23:36.297Z,66.72
2019-02-07T03:24:36.166Z,67.57
2019-02-07T03:25:36.034Z,67.85
2019-02-07T03:26:35.895Z,67.76
2019-02-07T03:27:35.760Z,67.95
2019-02-07T03:28:35.626Z,67.85
2019-02-07T03:29:35.489Z,66.63
2019-02-07T03:30:35.357Z,67.29
2019-02-07T03:31:35.228Z,67.66
2019-02-07T03:32:35.093Z,68.33
2019-02-07T03:33:34.954Z,68.23
2019-02-07T03:34:34.818Z,68.14
2019-02-07T03:35:34.682Z,67.57
2019-02-07T03:36:34.548Z,67.85
2019-02-07T03:37:34.411Z,68.42
2019-02-07T03:38:34.277Z,68.23
2019-02-07T03:39:34.144Z,69.74
2019-02-07T03:40:34.007Z,69.74
2019-02-07T03:41:33.879Z,70.31
2019-02-07T03:42:33.748Z,71.16
2019-02-07T03:43:33.607Z,70.31
2019-02-07T03:44:33.472Z,70.12
2019-02-07T03:45:33.335Z,70.12
2019-02-07T03:46:33.201Z,69.84
2019-02-07T03:47:33.069Z,69.74
2019-02-07T03:48:32.950Z,71.07
2019-02-07T03:49:32.796Z,70.97
2019-02-07T03:50:32.663Z,71.16
2019-02-07T03:51:32.527Z,70.69
2019-02-07T03:52:32.395Z,69.93
2019-02-07T03:53:32.260Z,69.37
2019-02-07T03:54:32.124Z,68.33
2019-02-07T03:55:31.987Z,68.52
2019-02-07T03:56:31.851Z,68.04
2019-02-07T03:57:31.723Z,68.33
2019-02-07T03:58:31.584Z,68.42
2019-02-07T03:59:31.447Z,69.18
2019-02-07T04:00:31.314Z,69.27
2019-02-07T04:01:31.179Z,69.18
2019-02-07T04:02:31.048Z,69.37
2019-02-07T04:03:30.914Z,69.27
2019-02-07T04:04:30.773Z,68.71
2019-02-07T04:05:30.645Z,68.71
2019-02-07T04:06:30.506Z,68.04
2019-02-07T04:07:30.370Z,68.42
2019-02-07T04:08:30.237Z,68.52
2019-02-07T04:09:30.102Z,67.66
2019-02-07T04:10:29.970Z,67.19
2019-02-07T04:11:29.830Z,66.63
2019-02-07T04:12:29.696Z,66.35
2019-02-07T04:13:29.561Z,67.10
2019-02-07T04:14:29.428Z,67.76
2019-02-07T04:15:29.337Z,68.04
2019-02-07T04:16:31.977Z,68.33
2019-02-07T04:17:29.022Z,68.61
2019-02-07T04:18:28.888Z,68.71
2019-02-07T04:19:28.752Z,68.04
2019-02-07T04:20:28.617Z,67.29
2019-02-07T04:21:28.485Z,66.72
2019-02-07T04:22:28.349Z,66.53
2019-02-07T04:23:28.219Z,67.10
2019-02-07T04:24:28.078Z,67.29
2019-02-07T04:25:27.945Z,67.10
2019-02-07T04:26:27.808Z,67.19
2019-02-07T04:27:27.678Z,67.10
2019-02-07T04:28:27.563Z,66.63
2019-02-07T04:29:27.409Z,67.19
2019-02-07T04:30:27.270Z,67.38
2019-02-07T04:31:27.136Z,67.19
2019-02-07T04:32:27.001Z,67.76
2019-02-07T04:33:26.866Z,67.66
2019-02-07T04:34:26.733Z,68.14
2019-02-07T04:35:26.596Z,68.52
2019-02-07T04:36:26.463Z,68.14
2019-02-07T04:37:26.332Z,67.57
2019-02-07T04:38:26.193Z,66.82
2019-02-07T04:39:26.059Z,67.19
2019-02-07T04:40:25.925Z,66.53
2019-02-07T04:41:25.795Z,65.68
2019-02-07T04:42:25.656Z,65.97
2019-02-07T04:43:25.519Z,65.87
2019-02-07T04:44:25.402Z,65.97
2019-02-07T04:45:25.250Z,66.25
2019-02-07T04:46:27.101Z,66.63
2019-02-07T04:47:24.981Z,66.44
2019-02-07T04:48:24.844Z,67.29
2019-02-07T04:49:24.785Z,66.72
2019-02-07T04:50:24.577Z,67.10
2019-02-07T04:51:24.441Z,67.19
2019-02-07T04:52:24.305Z,66.72
2019-02-07T04:53:24.178Z,66.82
2019-02-07T04:54:31.197Z,67.19
2019-02-07T04:56:16.676Z,66.63
2019-02-07T04:57:16.534Z,65.78
2019-02-07T04:59:09.209Z,64.54
2019-02-07T05:00:10.040Z,64.26
2019-02-07T05:02:02.530Z,64.36
2019-02-07T05:03:02.395Z,64.45
2019-02-07T05:04:55.140Z,64.73
2019-02-07T05:05:54.899Z,64.73
2019-02-07T05:07:47.539Z,66.72
2019-02-07T05:08:47.401Z,67.76
2019-02-07T05:10:40.044Z,67.38
2019-02-07T05:11:39.904Z,68.04
2019-02-07T05:13:32.558Z,68.23
2019-02-07T05:14:32.419Z,67.85
2019-02-07T05:16:25.121Z,66.72
2019-02-07T05:17:24.977Z,67.29
2019-02-07T05:19:17.625Z,68.14
2019-02-07T05:20:17.483Z,67.19
2019-02-07T05:22:10.123Z,66.91
2019-02-07T05:23:09.979Z,67.19
2019-02-07T05:25:02.643Z,67.38
2019-02-07T05:26:02.502Z,68.14
2019-02-07T05:27:55.182Z,68.14
2019-02-07T05:28:55.010Z,68.71
2019-02-07T05:30:47.653Z,70.21
2019-02-07T05:31:47.528Z,70.12
2019-02-07T05:33:40.173Z,68.80
2019-02-07T05:34:40.034Z,68.61
2019-02-07T05:36:32.675Z,68.33
2019-02-07T05:37:32.532Z,68.04
2019-02-07T05:39:26.050Z,68.04
2019-02-07T05:40:25.924Z,68.42
2019-02-07T05:42:18.589Z,69.09
2019-02-07T05:43:18.412Z,69.46
2019-02-07T05:45:11.125Z,69.46
2019-02-07T05:46:10.959Z,69.09
2019-02-07T05:48:03.599Z,67.95
2019-02-07T05:49:03.453Z,68.23
2019-02-07T05:50:56.135Z,66.16
2019-02-07T05:51:55.960Z,66.16
2019-02-07T05:53:48.774Z,65.97
2019-02-07T05:54:48.463Z,66.82
2019-02-07T05:56:41.104Z,66.72
2019-02-07T05:57:40.967Z,66.72
2019-02-07T05:59:34.450Z,67.85
2019-02-07T06:00:34.308Z,67.00
2019-02-07T06:02:26.957Z,66.63
2019-02-07T06:03:26.808Z,66.72
2019-02-07T06:05:19.454Z,66.82
2019-02-07T06:06:19.315Z,67.38
2019-02-07T06:08:12.800Z,68.33
2019-02-07T06:09:12.676Z,68.42
2019-02-07T06:11:05.322Z,68.33
2019-02-07T06:12:05.181Z,68.33
2019-02-07T06:13:57.848Z,68.04
2019-02-07T06:14:57.675Z,68.52
2019-02-07T06:16:50.365Z,68.90
2019-02-07T06:17:50.177Z,68.71
2019-02-07T06:19:42.833Z,68.33
2019-02-07T06:20:42.688Z,68.90
2019-02-07T06:22:35.328Z,68.42
2019-02-07T06:23:35.185Z,68.23
2019-02-07T06:25:27.825Z,67.29
2019-02-07T06:26:27.684Z,67.10
2019-02-07T06:28:20.327Z,66.82
2019-02-07T06:29:20.184Z,65.87
2019-02-07T06:31:12.827Z,66.53
2019-02-07T06:32:12.684Z,66.16
2019-02-07T06:34:07.568Z,65.87
2019-02-07T06:35:05.185Z,66.25
2019-02-07T06:36:57.844Z,66.25
2019-02-07T06:37:57.689Z,67.00
2019-02-07T06:39:50.337Z,68.04
2019-02-07T06:40:50.194Z,67.29
2019-02-07T06:42:42.874Z,67.19
2019-02-07T06:43:42.697Z,67.57
2019-02-07T06:45:35.348Z,66.91
2019-02-07T06:46:35.195Z,66.72
2019-02-07T06:48:27.835Z,68.33
2019-02-07T06:49:27.694Z,68.42
2019-02-07T06:51:21.183Z,66.91
2019-02-07T06:52:21.047Z,67.19
2019-02-07T06:54:13.689Z,67.76
2019-02-07T06:55:13.547Z,66.72
2019-02-07T06:57:06.185Z,67.00
2019-02-07T06:58:06.048Z,67.29
2019-02-07T06:59:59.539Z,66.91
2019-02-07T07:00:59.399Z,67.19
2019-02-07T07:02:52.037Z,66.35
2019-02-07T07:03:51.897Z,67.29
2019-02-07T07:05:44.576Z,67.85
2019-02-07T07:06:44.398Z,66.82
2019-02-07T07:08:37.895Z,66.91
2019-02-07T07:09:37.751Z,68.04
2019-02-07T07:11:30.392Z,68.52
2019-02-07T07:12:30.254Z,68.42
2019-02-07T07:14:22.911Z,68.04
2019-02-07T07:15:22.757Z,67.76
2019-02-07T07:16:22.621Z,68.04
2019-02-07T07:17:25.836Z,68.14
2019-02-07T07:18:22.355Z,67.19
2019-02-07T07:19:22.223Z,66.82
2019-02-07T07:20:22.082Z,66.56
2019-02-07T07:21:21.955Z,66.09
2019-02-07T07:22:21.816Z,66.19
2019-02-07T07:23:21.682Z,65.72
2019-02-07T07:24:21.546Z,66.38
2019-02-07T07:25:21.412Z,66.94
2019-02-07T07:26:21.278Z,67.51
2019-02-07T07:27:21.144Z,68.17
2019-02-07T07:28:21.009Z,68.08
2019-02-07T07:29:20.877Z,68.36
2019-02-07T07:30:20.745Z,69.12
2019-02-07T07:31:20.615Z,69.21
2019-02-07T07:32:20.474Z,69.40
2019-02-07T07:33:20.341Z,69.31
2019-02-07T07:34:20.208Z,67.79
2019-02-07T07:35:20.074Z,67.32
2019-02-07T07:36:19.940Z,68.17
2019-02-07T07:37:19.959Z,67.79
2019-02-07T07:38:19.672Z,67.79
2019-02-07T07:39:19.539Z,67.79
2019-02-07T07:40:19.404Z,67.32
2019-02-07T07:41:19.270Z,67.22
2019-02-07T07:42:19.134Z,67.03
2019-02-07T07:43:19.002Z,67.98
2019-02-07T07:44:18.872Z,67.98
2019-02-07T07:45:18.734Z,69.31
2019-02-07T07:46:18.607Z,69.68
2019-02-07T07:47:18.469Z,69.31
2019-02-07T07:48:18.333Z,68.84
2019-02-07T07:49:18.199Z,68.27
2019-02-07T07:50:18.067Z,68.74
2019-02-07T07:51:17.932Z,68.36
2019-02-07T07:52:17.812Z,68.55
2019-02-07T07:53:17.667Z,68.93
2019-02-07T07:54:17.533Z,68.46
2019-02-07T07:55:17.398Z,68.84
2019-02-07T07:56:17.265Z,69.31
2019-02-07T07:57:17.138Z,68.84
2019-02-07T07:58:16.999Z,68.46
2019-02-07T07:59:16.865Z,69.31
2019-02-07T08:00:19.000Z,66.98
2019-02-07T08:01:16.596Z,65.18
2019-02-07T08:02:16.464Z,66.13
2019-02-07T08:03:16.332Z,65.84
2019-02-07T08:04:16.201Z,65.37
2019-02-07T08:05:16.066Z,64.61
2019-02-07T08:06:15.934Z,62.82
2019-02-07T08:07:15.800Z,60.64
2019-02-07T08:08:15.667Z,60.74
2019-02-07T08:09:15.533Z,59.50
2019-02-07T08:10:15.399Z,56.10
2019-02-07T08:11:15.266Z,53.45
2019-02-07T08:12:15.135Z,53.55
2019-02-07T08:13:15.103Z,52.12
2019-02-07T08:14:14.868Z,52.12
2019-02-07T08:15:14.736Z,53.17
2019-02-07T08:16:14.602Z,54.39
2019-02-07T08:17:14.471Z,55.18
2019-02-07T08:18:14.335Z,53.57
2019-02-07T08:19:14.206Z,53.28
2019-02-07T08:20:14.072Z,51.49
2019-02-07T08:21:13.939Z,51.20
2019-02-07T08:22:13.808Z,51.01
2019-02-07T08:23:13.699Z,48.74
2019-02-07T08:24:13.542Z,47.23
2019-02-07T08:25:13.409Z,46.37
2019-02-07T08:26:13.279Z,44.48
2019-02-07T08:27:13.151Z,44.13
2019-02-07T08:28:13.020Z,44.13
2019-02-07T08:29:12.883Z,43.08
2019-02-07T08:30:12.752Z,44.89
2019-02-07T08:31:12.621Z,44.98
2019-02-07T08:32:12.489Z,44.98
2019-02-07T08:33:12.355Z,44.98
2019-02-07T08:34:12.227Z,43.84
2019-02-07T08:35:12.095Z,41.85
2019-02-07T08:36:11.962Z,41.00
2019-02-07T08:37:11.829Z,42.99
2019-02-07T08:38:11.713Z,44.41
2019-02-07T08:39:11.568Z,45.07
2019-02-07T08:40:11.439Z,45.07
2019-02-07T08:41:11.306Z,43.27
2019-02-07T08:42:11.176Z,41.76
2019-02-07T08:43:11.042Z,41.69
2019-02-07T08:44:14.055Z,43.01
2019-02-07T08:45:10.781Z,44.03
2019-02-07T08:46:10.648Z,43.77
2019-02-07T08:47:10.527Z,44.62
2019-02-07T08:48:10.389Z,44.34
2019-02-07T08:49:10.264Z,44.34
2019-02-07T08:50:10.154Z,45.38
2019-02-07T08:51:09.995Z,44.81
2019-02-07T08:52:09.864Z,45.10
2019-02-07T08:53:09.758Z,45.48
2019-02-07T08:54:09.603Z,45.29
2019-02-07T08:55:09.474Z,45.67
2019-02-07T08:56:09.342Z,45.76
2019-02-07T08:57:09.213Z,45.00
2019-02-07T08:58:09.080Z,45.86
2019-02-07T08:59:08.950Z,46.14
2019-02-07T09:00:08.820Z,45.76
2019-02-07T09:01:11.347Z,45.10
2019-02-07T09:02:08.561Z,44.53
2019-02-07T09:03:08.436Z,44.55
2019-02-07T09:04:08.299Z,43.79
2019-02-07T09:05:08.171Z,43.23
2019-02-07T09:06:08.039Z,41.14
2019-02-07T09:07:07.912Z,39.90
2019-02-07T09:08:07.778Z,39.15
2019-02-07T09:09:07.654Z,38.03
2019-02-07T09:10:07.521Z,37.55
2019-02-07T09:11:07.391Z,36.80
2019-02-07T09:12:07.266Z,35.57
2019-02-07T09:13:07.137Z,34.80
2019-02-07T09:14:07.007Z,34.71
2019-02-07T09:15:06.874Z,36.91
2019-02-07T09:16:06.742Z,37.01
2019-02-07T09:17:06.615Z,36.44
2019-02-07T09:18:11.346Z,36.82
2019-02-07T09:19:06.356Z,37.29
2019-02-07T09:20:06.227Z,38.14
2019-02-07T09:21:06.101Z,38.60
2019-02-07T09:22:05.969Z,39.92
2019-02-07T09:23:05.843Z,41.16
2019-02-07T09:24:05.713Z,43.46
2019-02-07T09:25:05.586Z,45.43
2019-02-07T09:26:05.456Z,47.25
2019-02-07T09:27:05.326Z,47.25
2019-02-07T09:28:05.198Z,47.73
2019-02-07T09:29:05.070Z,48.49
2019-02-07T09:30:04.946Z,48.30
2019-02-07T09:31:04.812Z,48.49
2019-02-07T09:32:04.683Z,47.34
2019-02-07T09:33:04.555Z,46.02
2019-02-07T09:34:04.428Z,46.11
2019-02-07T09:35:04.302Z,46.11
2019-02-07T09:36:05.596Z,45.07
2019-02-07T09:37:04.043Z,44.02
2019-02-07T09:38:03.917Z,42.98
2019-02-07T09:39:03.785Z,43.27
2019-02-07T09:40:03.656Z,42.70
2019-02-07T09:41:03.528Z,41.94
2019-02-07T09:42:03.408Z,41.18
2019-02-07T09:43:03.273Z,40.70
2019-02-07T09:44:03.146Z,39.83
2019-02-07T09:45:03.014Z,39.36
2019-02-07T09:46:02.889Z,39.73
2019-02-07T09:47:02.758Z,39.05
2019-02-07T09:48:02.633Z,38.48
2019-02-07T09:49:02.502Z,37.35
2019-02-07T09:50:02.375Z,37.35
2019-02-07T09:51:02.254Z,37.82
2019-02-07T09:52:02.118Z,38.48
2019-02-07T09:53:01.986Z,38.86
2019-02-07T09:54:01.864Z,38.86
2019-02-07T09:55:01.731Z,39.43
2019-02-07T09:56:01.599Z,40.28
2019-02-07T09:57:01.471Z,40.95
2019-02-07T09:58:01.341Z,41.42
2019-02-07T09:59:03.218Z,41.33
2019-02-07T10:00:01.118Z,41.61
2019-02-07T10:01:00.960Z,40.95
2019-02-07T10:02:00.826Z,38.77
2019-02-07T10:03:00.697Z,40.09
2019-02-07T10:04:00.567Z,43.13
2019-02-07T10:05:00.439Z,45.71
2019-02-07T10:06:00.311Z,48.75
2019-02-07T10:07:00.178Z,52.26
2019-02-07T10:08:00.051Z,54.25
2019-02-07T10:08:59.920Z,56.24
2019-02-07T10:09:59.793Z,55.96
2019-02-07T10:10:59.665Z,53.96
2019-02-07T10:11:59.546Z,49.41
2019-02-07T10:12:59.409Z,44.57
2019-02-07T10:13:59.277Z,43.91
2019-02-07T10:14:59.148Z,44.67
2019-02-07T10:15:59.019Z,43.34
2019-02-07T10:16:58.890Z,40.97
2019-02-07T10:17:58.761Z,38.60
2019-02-07T10:18:58.632Z,36.32
2019-02-07T10:19:58.501Z,35.94
2019-02-07T10:20:58.377Z,35.85
2019-02-07T10:21:58.246Z,37.46
2019-02-07T10:22:58.115Z,37.84
2019-02-07T10:23:57.988Z,38.03
2019-02-07T10:24:57.859Z,38.90
2019-02-07T10:25:57.730Z,38.53
2019-02-07T10:26:57.602Z,39.00
2019-02-07T10:27:57.472Z,40.33
2019-02-07T10:28:57.347Z,40.14
2019-02-07T10:29:57.216Z,40.04
2019-02-07T10:30:57.086Z,40.34
2019-02-07T10:31:56.957Z,40.82
2019-02-07T10:32:56.831Z,41.49
2019-02-07T10:33:56.703Z,40.92
2019-02-07T10:34:56.575Z,38.73
2019-02-07T10:35:56.447Z,34.55
2019-02-07T10:36:56.319Z,33.32
2019-02-07T10:37:56.190Z,34.36
2019-02-07T10:38:56.063Z,35.50
2019-02-07T10:39:55.937Z,37.42
2019-02-07T10:40:55.805Z,38.94
2019-02-07T10:41:55.677Z,38.37
2019-02-07T10:42:55.555Z,36.85
2019-02-07T10:43:55.422Z,35.63
2019-02-07T10:44:55.296Z,35.16
2019-02-07T10:45:55.169Z,35.63
2019-02-07T10:46:55.041Z,34.88
2019-02-07T10:47:54.915Z,33.62
2019-02-07T10:48:54.786Z,32.77
2019-02-07T10:49:59.353Z,31.63
2019-02-07T10:50:54.533Z,30.01
2019-02-07T10:51:54.403Z,32.29
2019-02-07T10:52:54.278Z,32.67
2019-02-07T10:53:54.151Z,33.64
2019-02-07T10:54:54.023Z,34.78
2019-02-07T10:55:53.896Z,34.11
2019-02-07T10:56:53.771Z,33.36
2019-02-07T10:57:53.645Z,32.88
2019-02-07T10:58:53.515Z,33.64
2019-02-07T10:59:53.387Z,34.30
2019-02-07T11:00:53.261Z,32.69
2019-02-07T11:01:53.138Z,31.74
2019-02-07T11:02:53.022Z,31.74
2019-02-07T11:03:52.879Z,30.51
2019-02-07T11:04:52.754Z,29.75
2019-02-07T11:05:54.568Z,29.85
2019-02-07T11:06:52.501Z,30.33
2019-02-07T11:07:52.375Z,29.28
2019-02-07T11:08:52.247Z,29.00
2019-02-07T11:09:52.119Z,29.75
2019-02-07T11:10:52.007Z,30.04
2019-02-07T11:11:51.870Z,29.85
2019-02-07T11:12:51.743Z,29.28
2019-02-07T11:13:51.614Z,28.90
2019-02-07T11:14:51.490Z,29.09
2019-02-07T11:15:51.360Z,31.66
2019-02-07T11:16:51.234Z,36.96
2019-02-07T11:17:51.110Z,41.55
2019-02-07T11:18:55.664Z,43.93
2019-02-07T11:19:50.855Z,43.90
2019-02-07T11:20:50.731Z,43.24
2019-02-07T11:21:50.603Z,43.24
2019-02-07T11:22:50.479Z,42.95
2019-02-07T11:23:50.351Z,42.19
2019-02-07T11:24:50.221Z,41.05
2019-02-07T11:25:50.095Z,41.05
2019-02-07T11:26:49.972Z,38.48
2019-02-07T11:27:49.843Z,36.96
2019-02-07T11:28:49.720Z,36.21
2019-02-07T11:29:49.593Z,34.78
2019-02-07T11:30:49.465Z,31.84
2019-02-07T11:31:49.339Z,30.03
2019-02-07T11:32:49.212Z,29.46
2019-02-07T11:33:49.089Z,28.79
2019-02-07T11:34:48.961Z,27.75
2019-02-07T11:35:48.833Z,27.46
2019-02-07T11:36:54.194Z,27.65
2019-02-07T11:37:48.582Z,27.56
2019-02-07T11:38:48.452Z,28.79
2019-02-07T11:39:48.326Z,30.51
2019-02-07T11:40:48.200Z,33.24
2019-02-07T11:41:48.075Z,33.81
2019-02-07T11:42:47.948Z,32.57
2019-02-07T11:43:47.819Z,32.21
2019-02-07T11:44:50.525Z,31.74
2019-02-07T11:45:47.565Z,31.07
2019-02-07T11:46:48.927Z,29.93
2019-02-07T11:47:47.396Z,29.84
2019-02-07T11:48:47.185Z,30.22
2019-02-07T11:49:47.060Z,29.27
2019-02-07T11:50:46.932Z,31.55
2019-02-07T11:51:46.805Z,36.30
2019-02-07T11:52:46.679Z,40.86
2019-02-07T11:53:46.599Z,44.57
2019-02-07T11:54:46.425Z,45.45
2019-02-07T11:55:46.297Z,44.40
2019-02-07T11:56:46.173Z,45.64
2019-02-07T11:57:46.044Z,48.21
2019-02-07T11:58:45.920Z,49.22
2019-02-07T11:59:45.791Z,50.18
2019-02-07T12:00:45.666Z,50.37
2019-02-07T12:01:45.539Z,49.98
2019-02-07T12:02:45.412Z,49.41
2019-02-07T12:03:45.285Z,48.27
2019-02-07T12:04:45.160Z,46.94
2019-02-07T12:05:45.033Z,48.08
2019-02-07T12:06:44.908Z,47.61
2019-02-07T12:07:44.777Z,47.52
2019-02-07T12:08:44.654Z,49.04
2019-02-07T12:09:44.556Z,51.12
2019-02-07T12:10:44.413Z,51.22
2019-02-07T12:11:44.273Z,50.74
2019-02-07T12:12:44.147Z,49.51
2019-02-07T12:13:44.021Z,49.60
2019-02-07T12:14:43.893Z,50.43
2019-02-07T12:15:43.767Z,51.22
2019-02-07T12:16:43.643Z,51.41
2019-02-07T12:17:43.516Z,51.48
2019-02-07T12:18:43.386Z,51.67
2019-02-07T12:19:43.259Z,51.67
2019-02-07T12:20:43.135Z,52.24
2019-02-07T12:21:43.006Z,52.33
2019-02-07T12:22:42.881Z,53.85
2019-02-07T12:23:42.752Z,54.71
2019-02-07T12:24:42.625Z,55.94
2019-02-07T12:25:42.498Z,55.69
2019-02-07T12:26:42.374Z,53.38
2019-02-07T12:27:42.244Z,52.33
2019-02-07T12:28:42.117Z,50.53
2019-02-07T12:29:41.994Z,49.29
2019-02-07T12:30:41.867Z,50.05
2019-02-07T12:31:41.735Z,51.20
2019-02-07T12:32:41.610Z,51.60
2019-02-07T12:33:41.484Z,50.91
2019-02-07T12:34:41.357Z,47.68
2019-02-07T12:35:41.233Z,44.35
2019-02-07T12:36:41.102Z,44.76
2019-02-07T12:37:40.975Z,45.78
2019-02-07T12:38:40.849Z,46.94
2019-02-07T12:39:40.724Z,49.60
2019-02-07T12:40:40.594Z,51.48
2019-02-07T12:41:40.469Z,53.73
2019-02-07T12:42:40.342Z,55.44
2019-02-07T12:43:40.212Z,56.01
2019-02-07T12:44:40.087Z,58.39
2019-02-07T12:45:39.960Z,59.91
2019-02-07T12:46:39.834Z,59.91
2019-02-07T12:47:39.704Z,59.33
2019-02-07T12:48:39.577Z,59.40
2019-02-07T12:49:39.452Z,57.43
2019-02-07T12:50:39.324Z,55.63
2019-02-07T12:51:39.194Z,53.35
2019-02-07T12:52:39.071Z,53.26
2019-02-07T12:53:38.940Z,54.49
2019-02-07T12:54:38.811Z,54.11
2019-02-07T12:55:38.685Z,52.78
2019-02-07T12:56:38.558Z,52.78
2019-02-07T12:57:38.429Z,52.87
2019-02-07T12:58:38.303Z,52.12
2019-02-07T12:59:38.174Z,50.22
2019-02-07T13:00:38.046Z,49.29
2019-02-07T13:01:37.918Z,49.96
2019-02-07T13:02:37.792Z,51.29
2019-02-07T13:03:37.664Z,50.05
2019-02-07T13:04:37.535Z,50.53
2019-02-07T13:05:37.413Z,50.98
2019-02-07T13:06:37.281Z,48.03
2019-02-07T13:07:37.152Z,45.09
2019-02-07T13:08:37.023Z,44.53
2019-02-07T13:09:36.901Z,51.07
2019-02-07T13:10:36.772Z,52.78
2019-02-07T13:11:36.660Z,53.45
2019-02-07T13:12:36.525Z,55.35
2019-02-07T13:13:36.389Z,55.44
2019-02-07T13:14:36.273Z,54.87
2019-02-07T13:15:36.132Z,55.63
2019-02-07T13:16:36.044Z,51.17
2019-02-07T13:17:35.875Z,52.87
2019-02-07T13:18:35.783Z,49.74
2019-02-07T13:19:40.563Z,45.19
2019-02-07T13:20:35.495Z,44.71
2019-02-07T13:21:35.362Z,45.57
2019-02-07T13:22:35.282Z,46.61
2019-02-07T13:23:35.133Z,49.55
2019-02-07T13:24:34.986Z,51.26
2019-02-07T13:25:34.850Z,52.95
2019-02-07T13:26:34.738Z,52.00
2019-02-07T13:27:34.621Z,49.43
2019-02-07T13:28:34.496Z,46.02
2019-02-07T13:29:34.385Z,44.21
2019-02-07T13:30:34.228Z,43.74
2019-02-07T13:31:34.086Z,43.55
2019-02-07T13:32:33.968Z,44.60
2019-02-07T13:33:33.873Z,45.54